ACA508 KORD-CYYZ
Flight info
| Callsign | ACA508 |
|---|---|
| Flight time | N/A |
| Altitude | 33000 |
| Route | EBAKE DCT WISMO DCT POSTS DCT PADDE DCT SVM DCT QWERI NUBER6 |
| Aircraft | A320/M-SDE3FGHIRWY/LB1 |
Departure
| Time | N/A |
|---|---|
| Airport | Chicago O'Hare International Airport (KORD) |
Arrival
| Time | 2026-05-04 19:46 |
|---|---|
| Airport | Toronto Pearson International Airport (CYYZ) |
| Time | Latitude | Longitude | Altitude | Speed | Heading |
|---|---|---|---|---|---|
| 2026-05-04 18:51 | 42.17720 | -87.29765 | 15099 ft | 416 kts | 57° |
| 2026-05-04 18:51 | 42.19192 | -87.26401 | 15606 ft | 420 kts | 57° |
| 2026-05-04 18:51 | 42.20670 | -87.23019 | 16188 ft | 423 kts | 57° |
| 2026-05-04 18:51 | 42.22171 | -87.19579 | 16677 ft | 427 kts | 57° |
| 2026-05-04 18:52 | 42.23668 | -87.16147 | 17168 ft | 430 kts | 57° |
| 2026-05-04 18:52 | 42.25196 | -87.12639 | 17661 ft | 433 kts | 57° |
| 2026-05-04 18:52 | 42.26665 | -87.09134 | 18135 ft | 437 kts | 62° |
| 2026-05-04 18:52 | 42.27756 | -87.05233 | 18570 ft | 444 kts | 73° |
| 2026-05-04 18:53 | 42.28278 | -87.01170 | 19016 ft | 448 kts | 84° |
| 2026-05-04 18:53 | 42.28473 | -86.96973 | 19477 ft | 450 kts | 86° |
| 2026-05-04 18:53 | 42.28604 | -86.92715 | 19959 ft | 452 kts | 87° |
| 2026-05-04 18:53 | 42.28732 | -86.88497 | 20382 ft | 454 kts | 87° |
| 2026-05-04 18:54 | 42.28873 | -86.84273 | 20855 ft | 456 kts | 86° |
| 2026-05-04 18:54 | 42.29028 | -86.79949 | 21265 ft | 459 kts | 86° |
| 2026-05-04 18:54 | 42.29187 | -86.75684 | 21676 ft | 461 kts | 86° |
| 2026-05-04 18:54 | 42.29352 | -86.71360 | 22079 ft | 463 kts | 86° |
| 2026-05-04 18:55 | 42.29518 | -86.67003 | 22464 ft | 466 kts | 86° |
| 2026-05-04 18:55 | 42.29848 | -86.58290 | 23232 ft | 470 kts | 86° |
| 2026-05-04 18:55 | 42.30014 | -86.53879 | 23567 ft | 473 kts | 86° |
| 2026-05-04 18:56 | 42.30177 | -86.49437 | 23932 ft | 475 kts | 86° |
| 2026-05-04 18:56 | 42.30339 | -86.44969 | 24256 ft | 478 kts | 86° |
| 2026-05-04 18:56 | 42.30499 | -86.40497 | 24629 ft | 480 kts | 86° |
| 2026-05-04 18:56 | 42.30659 | -86.36037 | 25005 ft | 481 kts | 86° |
| 2026-05-04 18:57 | 42.30819 | -86.31507 | 25306 ft | 484 kts | 86° |
| 2026-05-04 18:57 | 42.30978 | -86.26965 | 25603 ft | 486 kts | 86° |
| 2026-05-04 18:57 | 42.31133 | -86.22415 | 25920 ft | 488 kts | 86° |
| 2026-05-04 18:57 | 42.31288 | -86.17853 | 26221 ft | 490 kts | 86° |
| 2026-05-04 18:58 | 42.31443 | -86.13223 | 26506 ft | 492 kts | 86° |
| 2026-05-04 18:58 | 42.31553 | -86.08625 | 26783 ft | 494 kts | 89° |
| 2026-05-04 18:58 | 42.31537 | -86.03998 | 27066 ft | 495 kts | 90° |
| 2026-05-04 18:58 | 42.31490 | -85.99352 | 27316 ft | 497 kts | 90° |
| 2026-05-04 18:59 | 42.31430 | -85.94686 | 27581 ft | 499 kts | 90° |
| 2026-05-04 18:59 | 42.31370 | -85.89996 | 27838 ft | 500 kts | 90° |
| 2026-05-04 18:59 | 42.31309 | -85.85330 | 28069 ft | 501 kts | 90° |
| 2026-05-04 18:59 | 42.31249 | -85.80595 | 28339 ft | 502 kts | 90° |
| 2026-05-04 19:00 | 42.31187 | -85.75944 | 28667 ft | 501 kts | 90° |
| 2026-05-04 19:00 | 42.31124 | -85.71244 | 29015 ft | 499 kts | 90° |
| 2026-05-04 19:00 | 42.31061 | -85.66565 | 29327 ft | 499 kts | 90° |
| 2026-05-04 19:00 | 42.30996 | -85.61942 | 29600 ft | 499 kts | 90° |
| 2026-05-04 19:01 | 42.30927 | -85.57227 | 29942 ft | 497 kts | 90° |
| 2026-05-04 19:01 | 42.30859 | -85.52629 | 30277 ft | 496 kts | 90° |
| 2026-05-04 19:01 | 42.30788 | -85.47988 | 30582 ft | 495 kts | 90° |
| 2026-05-04 19:01 | 42.30715 | -85.43347 | 30904 ft | 493 kts | 90° |
| 2026-05-04 19:02 | 42.30641 | -85.38732 | 31150 ft | 494 kts | 90° |
| 2026-05-04 19:02 | 42.30564 | -85.34110 | 31353 ft | 495 kts | 90° |
| 2026-05-04 19:02 | 42.30485 | -85.29465 | 31532 ft | 496 kts | 90° |
| 2026-05-04 19:02 | 42.30404 | -85.24823 | 31727 ft | 497 kts | 90° |
| 2026-05-04 19:03 | 42.30321 | -85.20153 | 31913 ft | 497 kts | 90° |
| 2026-05-04 19:03 | 42.30235 | -85.15524 | 32088 ft | 498 kts | 90° |
| 2026-05-04 19:03 | 42.30148 | -85.10837 | 32246 ft | 499 kts | 90° |
| 2026-05-04 19:03 | 42.30058 | -85.06147 | 32410 ft | 500 kts | 90° |
| 2026-05-04 19:04 | 42.29967 | -85.01471 | 32573 ft | 500 kts | 90° |
| 2026-05-04 19:04 | 42.29863 | -84.96803 | 32676 ft | 501 kts | 90° |
| 2026-05-04 19:04 | 42.29636 | -84.87380 | 32682 ft | 502 kts | 90° |
| 2026-05-04 19:05 | 42.29402 | -84.77987 | 32681 ft | 502 kts | 90° |
| 2026-05-04 19:05 | 42.29160 | -84.68622 | 32682 ft | 501 kts | 90° |
| 2026-05-04 19:06 | 42.28909 | -84.59270 | 32686 ft | 501 kts | 90° |
| 2026-05-04 19:06 | 42.28850 | -84.49856 | 32697 ft | 500 kts | 85° |
| 2026-05-04 19:07 | 42.29548 | -84.40586 | 32700 ft | 498 kts | 78° |
| 2026-05-04 19:07 | 42.30830 | -84.31426 | 32695 ft | 498 kts | 76° |
| 2026-05-04 19:08 | 42.32151 | -84.22325 | 32692 ft | 497 kts | 77° |
| 2026-05-04 19:08 | 42.33455 | -84.13157 | 32686 ft | 498 kts | 77° |
| 2026-05-04 19:09 | 42.34740 | -84.03991 | 32686 ft | 498 kts | 77° |
| 2026-05-04 19:09 | 42.36017 | -83.94809 | 32687 ft | 498 kts | 77° |
| 2026-05-04 19:10 | 42.37292 | -83.85593 | 32691 ft | 498 kts | 77° |
| 2026-05-04 19:10 | 42.38553 | -83.76415 | 32694 ft | 498 kts | 77° |
| 2026-05-04 19:11 | 42.39797 | -83.67287 | 32700 ft | 497 kts | 77° |
| 2026-05-04 19:11 | 42.41159 | -83.58142 | 32702 ft | 496 kts | 73° |
| 2026-05-04 19:12 | 42.43950 | -83.44712 | 32701 ft | 495 kts | 71° |
| 2026-05-04 19:13 | 42.45836 | -83.35780 | 32701 ft | 495 kts | 70° |
| 2026-05-04 19:13 | 42.47713 | -83.26811 | 32698 ft | 496 kts | 71° |
| 2026-05-04 19:14 | 42.49566 | -83.17899 | 32698 ft | 496 kts | 71° |
| 2026-05-04 19:14 | 42.51430 | -83.08881 | 32694 ft | 496 kts | 71° |
| 2026-05-04 19:15 | 42.53276 | -82.99913 | 32692 ft | 497 kts | 71° |
| 2026-05-04 19:15 | 42.55119 | -82.90911 | 32697 ft | 496 kts | 71° |
| 2026-05-04 19:16 | 42.56949 | -82.81946 | 32695 ft | 496 kts | 71° |
| 2026-05-04 19:16 | 42.58778 | -82.72935 | 32696 ft | 495 kts | 71° |
| 2026-05-04 19:17 | 42.60597 | -82.63938 | 32694 ft | 497 kts | 71° |
| 2026-05-04 19:17 | 42.62408 | -82.54928 | 32688 ft | 496 kts | 71° |
| 2026-05-04 19:18 | 42.64210 | -82.45911 | 32681 ft | 497 kts | 71° |
| 2026-05-04 19:18 | 42.66040 | -82.36899 | 32684 ft | 495 kts | 69° |
| 2026-05-04 19:19 | 42.68432 | -82.28172 | 32685 ft | 492 kts | 62° |
| 2026-05-04 19:19 | 42.71573 | -82.19997 | 32690 ft | 489 kts | 54° |
| 2026-05-04 19:20 | 42.75398 | -82.12399 | 32689 ft | 485 kts | 49° |
| 2026-05-04 19:20 | 42.79411 | -82.04997 | 32692 ft | 488 kts | 51° |
| 2026-05-04 19:21 | 42.82941 | -81.97124 | 32698 ft | 489 kts | 56° |
| 2026-05-04 19:21 | 42.86247 | -81.89082 | 32688 ft | 490 kts | 56° |
| 2026-05-04 19:22 | 42.89561 | -81.80995 | 32683 ft | 491 kts | 56° |
| 2026-05-04 19:22 | 42.92892 | -81.72877 | 32690 ft | 490 kts | 56° |
| 2026-05-04 19:23 | 42.96220 | -81.64751 | 32693 ft | 491 kts | 56° |
| 2026-05-04 19:23 | 42.99526 | -81.56664 | 32701 ft | 491 kts | 56° |
| 2026-05-04 19:24 | 43.02848 | -81.48503 | 32702 ft | 491 kts | 56° |
| 2026-05-04 19:24 | 43.04486 | -81.44468 | 32574 ft | 484 kts | 56° |
| 2026-05-04 19:24 | 43.06086 | -81.40521 | 31672 ft | 477 kts | 56° |
| 2026-05-04 19:24 | 43.07696 | -81.36538 | 29900 ft | 484 kts | 57° |
| 2026-05-04 19:25 | 43.09283 | -81.32536 | 27732 ft | 497 kts | 58° |
| 2026-05-04 19:25 | 43.10930 | -81.28343 | 26044 ft | 504 kts | 58° |
| 2026-05-04 19:25 | 43.12554 | -81.24172 | 25414 ft | 492 kts | 58° |
| 2026-05-04 19:25 | 43.14130 | -81.20107 | 25152 ft | 479 kts | 58° |
| 2026-05-04 19:26 | 43.15674 | -81.16129 | 24849 ft | 476 kts | 58° |
| 2026-05-04 19:26 | 43.17216 | -81.12163 | 24490 ft | 474 kts | 58° |
| 2026-05-04 19:26 | 43.18753 | -81.08212 | 24064 ft | 471 kts | 58° |
| 2026-05-04 19:26 | 43.20302 | -81.04221 | 23560 ft | 468 kts | 58° |
| 2026-05-04 19:27 | 43.21815 | -81.00321 | 23033 ft | 464 kts | 58° |
| 2026-05-04 19:27 | 43.23311 | -80.96460 | 22511 ft | 460 kts | 58° |
| 2026-05-04 19:27 | 43.24785 | -80.92649 | 21982 ft | 456 kts | 58° |
| 2026-05-04 19:27 | 43.26270 | -80.88801 | 21474 ft | 451 kts | 59° |
| 2026-05-04 19:28 | 43.27718 | -80.85047 | 20984 ft | 447 kts | 59° |
| 2026-05-04 19:28 | 43.29163 | -80.81290 | 20480 ft | 443 kts | 59° |
| 2026-05-04 19:28 | 43.30579 | -80.77611 | 19979 ft | 439 kts | 59° |
| 2026-05-04 19:28 | 43.32000 | -80.73910 | 19461 ft | 435 kts | 59° |
| 2026-05-04 19:29 | 43.33389 | -80.70290 | 18958 ft | 432 kts | 59° |
| 2026-05-04 19:29 | 43.34783 | -80.66646 | 18437 ft | 428 kts | 59° |
| 2026-05-04 19:29 | 43.36151 | -80.63072 | 17940 ft | 425 kts | 60° |
| 2026-05-04 19:29 | 43.37522 | -80.59479 | 17436 ft | 422 kts | 59° |
| 2026-05-04 19:30 | 43.38885 | -80.55904 | 16905 ft | 420 kts | 60° |
| 2026-05-04 19:30 | 43.40226 | -80.52383 | 16387 ft | 418 kts | 60° |
| 2026-05-04 19:30 | 43.41560 | -80.48871 | 15870 ft | 415 kts | 60° |
| 2026-05-04 19:30 | 43.42884 | -80.45383 | 15349 ft | 413 kts | 60° |
| 2026-05-04 19:31 | 43.44218 | -80.41871 | 14829 ft | 411 kts | 60° |
| 2026-05-04 19:31 | 43.45500 | -80.38403 | 14380 ft | 407 kts | 63° |
| 2026-05-04 19:31 | 43.46579 | -80.34976 | 14094 ft | 399 kts | 67° |
| 2026-05-04 19:31 | 43.47562 | -80.31490 | 13916 ft | 386 kts | 68° |
| 2026-05-04 19:32 | 43.48494 | -80.28097 | 13759 ft | 374 kts | 68° |
| 2026-05-04 19:32 | 43.49408 | -80.24766 | 13583 ft | 364 kts | 68° |
| 2026-05-04 19:32 | 43.50294 | -80.21562 | 13391 ft | 354 kts | 68° |
| 2026-05-04 19:32 | 43.51148 | -80.18474 | 13254 ft | 344 kts | 68° |
| 2026-05-04 19:33 | 43.51978 | -80.15412 | 12889 ft | 341 kts | 68° |
| 2026-05-04 19:33 | 43.52798 | -80.12344 | 12527 ft | 339 kts | 69° |
| 2026-05-04 19:33 | 43.53606 | -80.09309 | 12162 ft | 336 kts | 69° |
| 2026-05-04 19:33 | 43.54401 | -80.06313 | 11805 ft | 334 kts | 69° |
| 2026-05-04 19:34 | 43.55191 | -80.03343 | 11441 ft | 332 kts | 69° |
| 2026-05-04 19:34 | 43.55987 | -80.00350 | 11070 ft | 329 kts | 69° |
| 2026-05-04 19:34 | 43.56762 | -79.97427 | 10718 ft | 327 kts | 69° |
| 2026-05-04 19:34 | 43.57541 | -79.94486 | 10371 ft | 324 kts | 69° |
| 2026-05-04 19:35 | 43.58306 | -79.91599 | 10019 ft | 322 kts | 69° |
| 2026-05-04 19:35 | 43.59047 | -79.88719 | 9662 ft | 321 kts | 73° |
| 2026-05-04 19:35 | 43.59493 | -79.85708 | 9320 ft | 318 kts | 85° |
| 2026-05-04 19:35 | 43.59594 | -79.82639 | 8966 ft | 315 kts | 91° |
| 2026-05-04 19:36 | 43.59596 | -79.79626 | 8601 ft | 313 kts | 92° |
| 2026-05-04 19:36 | 43.59585 | -79.76667 | 8297 ft | 310 kts | 92° |
| 2026-05-04 19:36 | 43.59586 | -79.73691 | 8032 ft | 306 kts | 91° |
| 2026-05-04 19:36 | 43.59598 | -79.70856 | 8013 ft | 291 kts | 91° |
| 2026-05-04 19:37 | 43.59615 | -79.68116 | 8011 ft | 277 kts | 91° |
| 2026-05-04 19:37 | 43.59632 | -79.65495 | 8046 ft | 274 kts | 91° |
| 2026-05-04 19:37 | 43.59649 | -79.62855 | 8022 ft | 273 kts | 91° |
| 2026-05-04 19:37 | 43.59657 | -79.60253 | 7835 ft | 270 kts | 91° |
| 2026-05-04 19:38 | 43.59660 | -79.57669 | 7482 ft | 275 kts | 92° |
| 2026-05-04 19:38 | 43.59722 | -79.55029 | 7106 ft | 279 kts | 80° |
| 2026-05-04 19:38 | 43.60523 | -79.52609 | 6733 ft | 277 kts | 47° |
| 2026-05-04 19:38 | 43.61832 | -79.50691 | 6454 ft | 274 kts | 40° |
| 2026-05-04 19:39 | 43.63225 | -79.48876 | 6153 ft | 273 kts | 40° |
| 2026-05-04 19:39 | 43.64604 | -79.47044 | 5855 ft | 273 kts | 41° |
| 2026-05-04 19:39 | 43.65926 | -79.45210 | 5563 ft | 272 kts | 43° |
| 2026-05-04 19:39 | 43.67238 | -79.43330 | 5275 ft | 271 kts | 44° |
| 2026-05-04 19:40 | 43.68536 | -79.41439 | 4987 ft | 271 kts | 44° |
| 2026-05-04 19:40 | 43.69832 | -79.39542 | 4695 ft | 270 kts | 45° |
| 2026-05-04 19:40 | 43.71109 | -79.37691 | 4396 ft | 269 kts | 41° |
| 2026-05-04 19:40 | 43.72661 | -79.36387 | 4151 ft | 257 kts | 6° |
| 2026-05-04 19:41 | 43.74369 | -79.36546 | 3793 ft | 240 kts | 327° |
| 2026-05-04 19:41 | 43.75583 | -79.37950 | 3516 ft | 223 kts | 301° |
| 2026-05-04 19:41 | 43.76510 | -79.39635 | 3250 ft | 221 kts | 300° |
| 2026-05-04 19:41 | 43.77471 | -79.41293 | 3046 ft | 219 kts | 298° |
| 2026-05-04 19:42 | 43.78003 | -79.43154 | 3014 ft | 205 kts | 265° |
| 2026-05-04 19:42 | 43.77689 | -79.44952 | 3011 ft | 184 kts | 238° |
| 2026-05-04 19:42 | 43.76976 | -79.46384 | 3008 ft | 182 kts | 230° |
| 2026-05-04 19:42 | 43.76154 | -79.47711 | 2842 ft | 182 kts | 227° |
| 2026-05-04 19:43 | 43.75320 | -79.48960 | 2690 ft | 171 kts | 226° |
| 2026-05-04 19:43 | 43.74522 | -79.50121 | 2425 ft | 160 kts | 226° |
| 2026-05-04 19:43 | 43.73790 | -79.51179 | 2204 ft | 146 kts | 226° |
| 2026-05-04 19:43 | 43.73088 | -79.52196 | 2016 ft | 145 kts | 226° |
| 2026-05-04 19:44 | 43.72390 | -79.53210 | 1823 ft | 143 kts | 226° |
| 2026-05-04 19:44 | 43.71707 | -79.54203 | 1627 ft | 143 kts | 226° |
| 2026-05-04 19:44 | 43.71018 | -79.55205 | 1437 ft | 143 kts | 226° |
| 2026-05-04 19:44 | 43.70339 | -79.56190 | 1257 ft | 142 kts | 225° |
| 2026-05-04 19:45 | 43.69654 | -79.57186 | 1067 ft | 142 kts | 225° |
| 2026-05-04 19:45 | 43.68982 | -79.58167 | 883 ft | 140 kts | 225° |
| 2026-05-04 19:45 | 43.68321 | -79.59129 | 692 ft | 134 kts | 224° |
| 2026-05-04 19:45 | 43.67712 | -79.60010 | 549 ft | 119 kts | 225° |
| 2026-05-04 19:46 | 43.67248 | -79.60683 | 552 ft | 62 kts | 227° |
| 2026-05-04 19:46 | 43.67033 | -79.60992 | 550 ft | 31 kts | 231° |
| 2026-05-04 19:46 | 43.66924 | -79.61237 | 548 ft | 28 kts | 251° |
| 2026-05-04 19:46 | 43.66904 | -79.61415 | 550 ft | 12 kts | 307° |
| 2026-05-04 19:47 | 43.66972 | -79.61415 | 551 ft | 11 kts | 45° |
| 2026-05-04 19:47 | 43.67033 | -79.61327 | 551 ft | 12 kts | 46° |
| 2026-05-04 19:47 | 43.67093 | -79.61240 | 553 ft | 12 kts | 46° |
| 2026-05-04 19:47 | 43.67161 | -79.61157 | 553 ft | 13 kts | 9° |
| 2026-05-04 19:48 | 43.67233 | -79.61198 | 556 ft | 10 kts | 314° |
| 2026-05-04 19:48 | 43.67279 | -79.61266 | 557 ft | 8 kts | 311° |
| 2026-05-04 19:48 | 43.67319 | -79.61320 | 559 ft | 7 kts | 314° |
| 2026-05-04 19:48 | 43.67353 | -79.61366 | 560 ft | 6 kts | 316° |
| 2026-05-04 19:49 | 43.67386 | -79.61408 | 561 ft | 6 kts | 316° |
| 2026-05-04 19:49 | 43.67419 | -79.61452 | 561 ft | 6 kts | 317° |
| 2026-05-04 19:49 | 43.67462 | -79.61507 | 562 ft | 9 kts | 314° |
| 2026-05-04 19:49 | 43.67521 | -79.61575 | 563 ft | 12 kts | 321° |
| 2026-05-04 19:50 | 43.67591 | -79.61657 | 565 ft | 14 kts | 317° |
| 2026-05-04 19:50 | 43.67664 | -79.61634 | 566 ft | 12 kts | 45° |
| 2026-05-04 19:50 | 43.67724 | -79.61547 | 567 ft | 13 kts | 46° |
| 2026-05-04 19:50 | 43.67778 | -79.61467 | 566 ft | 10 kts | 46° |
| 2026-05-04 19:51 | 43.67830 | -79.61389 | 566 ft | 11 kts | 47° |
| 2026-05-04 19:51 | 43.67848 | -79.61285 | 566 ft | 10 kts | 88° |
| 2026-05-04 19:51 | 43.67848 | -79.61249 | 566 ft | 0 kts | 90° |